sensor_id;sensor_type;location;lat;lon;timestamp;temperature;humidity
80132;SHT30;69442;51.442;10.564;2023-05-10T00:02:01;15.49;49.46
80132;SHT30;69442;51.442;10.564;2023-05-10T00:04:27;15.46;49.59
80132;SHT30;69442;51.442;10.564;2023-05-10T00:06:53;15.43;49.81
80132;SHT30;69442;51.442;10.564;2023-05-10T00:09:19;15.40;49.55
80132;SHT30;69442;51.442;10.564;2023-05-10T00:11:44;15.38;49.86
80132;SHT30;69442;51.442;10.564;2023-05-10T00:14:10;15.36;49.93
80132;SHT30;69442;51.442;10.564;2023-05-10T00:16:35;15.34;49.92
80132;SHT30;69442;51.442;10.564;2023-05-10T00:19:00;15.32;49.86
80132;SHT30;69442;51.442;10.564;2023-05-10T00:21:26;15.29;49.87
80132;SHT30;69442;51.442;10.564;2023-05-10T00:23:53;15.27;49.79
80132;SHT30;69442;51.442;10.564;2023-05-10T00:26:18;15.27;50.15
80132;SHT30;69442;51.442;10.564;2023-05-10T00:28:44;15.22;49.86
80132;SHT30;69442;51.442;10.564;2023-05-10T00:31:09;15.21;49.99
80132;SHT30;69442;51.442;10.564;2023-05-10T00:33:34;15.17;49.94
80132;SHT30;69442;51.442;10.564;2023-05-10T00:36:00;15.17;50.18
80132;SHT30;69442;51.442;10.564;2023-05-10T00:38:25;15.14;50.16
80132;SHT30;69442;51.442;10.564;2023-05-10T00:40:51;15.10;49.93
80132;SHT30;69442;51.442;10.564;2023-05-10T00:43:16;15.07;50.44
80132;SHT30;69442;51.442;10.564;2023-05-10T00:45:42;15.04;50.10
80132;SHT30;69442;51.442;10.564;2023-05-10T00:48:08;15.01;50.10
80132;SHT30;69442;51.442;10.564;2023-05-10T00:50:33;14.95;50.18
80132;SHT30;69442;51.442;10.564;2023-05-10T00:52:59;14.98;50.48
80132;SHT30;69442;51.442;10.564;2023-05-10T00:55:26;14.94;50.66
80132;SHT30;69442;51.442;10.564;2023-05-10T00:57:52;14.93;50.30
80132;SHT30;69442;51.442;10.564;2023-05-10T01:00:18;14.91;50.40
80132;SHT30;69442;51.442;10.564;2023-05-10T01:02:47;14.88;50.49
80132;SHT30;69442;51.442;10.564;2023-05-10T01:05:13;14.86;50.43
80132;SHT30;69442;51.442;10.564;2023-05-10T01:07:39;14.87;50.51
80132;SHT30;69442;51.442;10.564;2023-05-10T01:10:06;14.81;50.52
80132;SHT30;69442;51.442;10.564;2023-05-10T01:12:32;14.83;50.78
80132;SHT30;69442;51.442;10.564;2023-05-10T01:14:58;14.77;50.84
80132;SHT30;69442;51.442;10.564;2023-05-10T01:17:25;14.75;51.16
80132;SHT30;69442;51.442;10.564;2023-05-10T01:19:50;14.67;51.20
80132;SHT30;69442;51.442;10.564;2023-05-10T01:33:01;14.60;51.58
80132;SHT30;69442;51.442;10.564;2023-05-10T01:35:40;14.60;51.62
80132;SHT30;69442;51.442;10.564;2023-05-10T01:38:47;14.59;51.63
80132;SHT30;69442;51.442;10.564;2023-05-10T01:41:15;14.59;51.55
80132;SHT30;69442;51.442;10.564;2023-05-10T01:46:44;14.55;51.85
80132;SHT30;69442;51.442;10.564;2023-05-10T01:49:41;14.56;51.75
80132;SHT30;69442;51.442;10.564;2023-05-10T01:52:11;14.55;51.76
80132;SHT30;69442;51.442;10.564;2023-05-10T01:54:41;14.53;52.00
80132;SHT30;69442;51.442;10.564;2023-05-10T01:57:08;14.53;51.75
80132;SHT30;69442;51.442;10.564;2023-05-10T01:59:38;14.53;51.70
80132;SHT30;69442;51.442;10.564;2023-05-10T02:02:07;14.50;51.66
80132;SHT30;69442;51.442;10.564;2023-05-10T02:04:35;14.46;51.66
80132;SHT30;69442;51.442;10.564;2023-05-10T02:07:00;14.43;51.66
80132;SHT30;69442;51.442;10.564;2023-05-10T02:09:27;14.45;51.93
80132;SHT30;69442;51.442;10.564;2023-05-10T02:11:53;14.42;51.91
80132;SHT30;69442;51.442;10.564;2023-05-10T02:14:20;14.41;51.95
80132;SHT30;69442;51.442;10.564;2023-05-10T02:16:47;14.41;52.01
80132;SHT30;69442;51.442;10.564;2023-05-10T02:19:13;14.41;52.01
80132;SHT30;69442;51.442;10.564;2023-05-10T02:21:39;14.38;52.01
80132;SHT30;69442;51.442;10.564;2023-05-10T02:24:07;14.35;52.08
80132;SHT30;69442;51.442;10.564;2023-05-10T02:26:35;14.33;52.30
80132;SHT30;69442;51.442;10.564;2023-05-10T02:29:02;14.35;52.17
80132;SHT30;69442;51.442;10.564;2023-05-10T02:31:30;14.35;52.30
80132;SHT30;69442;51.442;10.564;2023-05-10T02:33:57;14.32;52.23
80132;SHT30;69442;51.442;10.564;2023-05-10T02:36:24;14.31;52.05
80132;SHT30;69442;51.442;10.564;2023-05-10T02:38:52;14.29;52.12
80132;SHT30;69442;51.442;10.564;2023-05-10T02:41:20;14.29;52.19
80132;SHT30;69442;51.442;10.564;2023-05-10T02:43:47;14.28;52.30
80132;SHT30;69442;51.442;10.564;2023-05-10T02:46:12;14.26;52.38
80132;SHT30;69442;51.442;10.564;2023-05-10T02:48:38;14.25;52.58
80132;SHT30;69442;51.442;10.564;2023-05-10T02:51:05;14.25;52.61
80132;SHT30;69442;51.442;10.564;2023-05-10T02:53:34;14.25;52.71
80132;SHT30;69442;51.442;10.564;2023-05-10T02:56:04;14.24;52.52
80132;SHT30;69442;51.442;10.564;2023-05-10T02:58:32;14.25;52.47
80132;SHT30;69442;51.442;10.564;2023-05-10T03:00:57;14.24;52.43
80132;SHT30;69442;51.442;10.564;2023-05-10T03:03:23;14.22;52.62
80132;SHT30;69442;51.442;10.564;2023-05-10T03:05:48;14.21;52.53
80132;SHT30;69442;51.442;10.564;2023-05-10T03:08:14;14.22;52.46
80132;SHT30;69442;51.442;10.564;2023-05-10T03:11:27;14.20;52.58
80132;SHT30;69442;51.442;10.564;2023-05-10T03:13:47;14.22;52.46
80132;SHT30;69442;51.442;10.564;2023-05-10T03:16:32;14.22;52.62
80132;SHT30;69442;51.442;10.564;2023-05-10T03:19:16;14.22;52.69
80132;SHT30;69442;51.442;10.564;2023-05-10T03:21:47;14.20;52.59
80132;SHT30;69442;51.442;10.564;2023-05-10T03:24:15;14.17;52.64
80132;SHT30;69442;51.442;10.564;2023-05-10T03:26:43;14.17;52.76
80132;SHT30;69442;51.442;10.564;2023-05-10T03:29:10;14.18;52.85
80132;SHT30;69442;51.442;10.564;2023-05-10T03:31:38;14.15;52.88
80132;SHT30;69442;51.442;10.564;2023-05-10T03:34:03;14.17;52.87
80132;SHT30;69442;51.442;10.564;2023-05-10T03:36:28;14.14;52.74
80132;SHT30;69442;51.442;10.564;2023-05-10T03:38:54;14.17;52.66
80132;SHT30;69442;51.442;10.564;2023-05-10T03:41:19;14.15;52.79
80132;SHT30;69442;51.442;10.564;2023-05-10T03:43:45;14.15;53.03
80132;SHT30;69442;51.442;10.564;2023-05-10T03:46:11;14.15;53.09
80132;SHT30;69442;51.442;10.564;2023-05-10T03:48:36;14.13;53.30
80132;SHT30;69442;51.442;10.564;2023-05-10T03:51:02;14.13;53.21
80132;SHT30;69442;51.442;10.564;2023-05-10T03:53:27;14.13;53.05
80132;SHT30;69442;51.442;10.564;2023-05-10T03:55:52;14.13;53.01
80132;SHT30;69442;51.442;10.564;2023-05-10T03:58:18;14.13;53.06
80132;SHT30;69442;51.442;10.564;2023-05-10T04:00:43;14.14;53.01
80132;SHT30;69442;51.442;10.564;2023-05-10T04:03:11;14.11;53.06
80132;SHT30;69442;51.442;10.564;2023-05-10T04:05:36;14.13;53.19
80132;SHT30;69442;51.442;10.564;2023-05-10T04:08:03;14.11;53.18
80132;SHT30;69442;51.442;10.564;2023-05-10T04:10:28;14.11;53.27
80132;SHT30;69442;51.442;10.564;2023-05-10T04:12:54;14.10;53.27
80132;SHT30;69442;51.442;10.564;2023-05-10T04:15:19;14.10;53.31
80132;SHT30;69442;51.442;10.564;2023-05-10T04:17:45;14.14;53.52
80132;SHT30;69442;51.442;10.564;2023-05-10T04:20:11;14.13;53.61
80132;SHT30;69442;51.442;10.564;2023-05-10T04:22:36;14.13;53.62
80132;SHT30;69442;51.442;10.564;2023-05-10T04:25:02;14.10;53.48
80132;SHT30;69442;51.442;10.564;2023-05-10T04:27:27;14.13;53.36
80132;SHT30;69442;51.442;10.564;2023-05-10T04:29:53;14.13;53.53
80132;SHT30;69442;51.442;10.564;2023-05-10T04:32:18;14.11;53.68
80132;SHT30;69442;51.442;10.564;2023-05-10T04:34:45;14.10;53.67
80132;SHT30;69442;51.442;10.564;2023-05-10T04:37:10;14.13;53.69
80132;SHT30;69442;51.442;10.564;2023-05-10T04:39:36;14.13;53.61
80132;SHT30;69442;51.442;10.564;2023-05-10T04:42:03;14.14;53.63
80132;SHT30;69442;51.442;10.564;2023-05-10T04:44:29;14.17;53.85
80132;SHT30;69442;51.442;10.564;2023-05-10T04:46:55;14.14;53.69
80132;SHT30;69442;51.442;10.564;2023-05-10T04:49:21;14.17;53.70
80132;SHT30;69442;51.442;10.564;2023-05-10T04:51:46;14.18;53.49
80132;SHT30;69442;51.442;10.564;2023-05-10T04:54:12;14.22;53.37
80132;SHT30;69442;51.442;10.564;2023-05-10T04:56:37;14.22;53.61
80132;SHT30;69442;51.442;10.564;2023-05-10T04:59:03;14.25;53.60
80132;SHT30;69442;51.442;10.564;2023-05-10T05:01:28;14.25;53.67
80132;SHT30;69442;51.442;10.564;2023-05-10T05:03:54;14.25;53.84
80132;SHT30;69442;51.442;10.564;2023-05-10T05:06:19;14.26;54.02
80132;SHT30;69442;51.442;10.564;2023-05-10T05:08:46;14.26;54.46
80132;SHT30;69442;51.442;10.564;2023-05-10T05:11:11;14.28;54.34
80132;SHT30;69442;51.442;10.564;2023-05-10T05:13:37;14.26;54.37
80132;SHT30;69442;51.442;10.564;2023-05-10T05:16:02;14.29;54.41
80132;SHT30;69442;51.442;10.564;2023-05-10T05:18:28;14.26;54.57
80132;SHT30;69442;51.442;10.564;2023-05-10T05:20:53;14.31;54.67
80132;SHT30;69442;51.442;10.564;2023-05-10T05:23:19;14.32;54.88
80132;SHT30;69442;51.442;10.564;2023-05-10T05:25:46;14.33;55.08
80132;SHT30;69442;51.442;10.564;2023-05-10T05:28:11;14.33;55.23
80132;SHT30;69442;51.442;10.564;2023-05-10T05:30:36;14.33;55.42
80132;SHT30;69442;51.442;10.564;2023-05-10T05:33:02;14.38;55.88
80132;SHT30;69442;51.442;10.564;2023-05-10T05:35:27;14.38;56.14
80132;SHT30;69442;51.442;10.564;2023-05-10T05:37:53;14.33;56.34
80132;SHT30;69442;51.442;10.564;2023-05-10T05:40:18;14.35;56.50
80132;SHT30;69442;51.442;10.564;2023-05-10T05:42:43;14.33;56.66
80132;SHT30;69442;51.442;10.564;2023-05-10T05:45:09;14.35;56.70
80132;SHT30;69442;51.442;10.564;2023-05-10T05:47:38;14.38;56.71
80132;SHT30;69442;51.442;10.564;2023-05-10T05:50:04;14.38;56.74
80132;SHT30;69442;51.442;10.564;2023-05-10T05:52:30;14.42;56.80
80132;SHT30;69442;51.442;10.564;2023-05-10T05:54:55;14.42;56.98
80132;SHT30;69442;51.442;10.564;2023-05-10T05:57:20;14.45;56.84
80132;SHT30;69442;51.442;10.564;2023-05-10T05:59:46;14.46;57.03
80132;SHT30;69442;51.442;10.564;2023-05-10T06:02:12;14.46;57.03
80132;SHT30;69442;51.442;10.564;2023-05-10T06:04:37;14.48;57.10
80132;SHT30;69442;51.442;10.564;2023-05-10T06:07:03;14.49;57.23
80132;SHT30;69442;51.442;10.564;2023-05-10T06:09:28;14.50;57.55
80132;SHT30;69442;51.442;10.564;2023-05-10T06:11:53;14.52;57.73
80132;SHT30;69442;51.442;10.564;2023-05-10T06:14:22;14.55;57.56
80132;SHT30;69442;51.442;10.564;2023-05-10T06:16:47;14.58;57.77
80132;SHT30;69442;51.442;10.564;2023-05-10T06:19:12;14.58;57.86
80132;SHT30;69442;51.442;10.564;2023-05-10T06:21:38;14.60;57.92
80132;SHT30;69442;51.442;10.564;2023-05-10T06:24:03;14.62;58.23
80132;SHT30;69442;51.442;10.564;2023-05-10T06:26:29;14.63;58.27
80132;SHT30;69442;51.442;10.564;2023-05-10T06:28:55;14.65;58.41
80132;SHT30;69442;51.442;10.564;2023-05-10T06:31:20;14.65;58.67
80132;SHT30;69442;51.442;10.564;2023-05-10T06:33:46;14.67;58.88
80132;SHT30;69442;51.442;10.564;2023-05-10T06:36:11;14.69;59.05
80132;SHT30;69442;51.442;10.564;2023-05-10T06:38:36;14.72;59.02
80132;SHT30;69442;51.442;10.564;2023-05-10T06:41:02;14.73;59.21
80132;SHT30;69442;51.442;10.564;2023-05-10T06:43:27;14.77;59.22
80132;SHT30;69442;51.442;10.564;2023-05-10T06:45:53;14.76;59.17
80132;SHT30;69442;51.442;10.564;2023-05-10T06:48:19;14.79;59.25
80132;SHT30;69442;51.442;10.564;2023-05-10T06:50:44;14.80;59.61
80132;SHT30;69442;51.442;10.564;2023-05-10T06:53:10;14.83;59.80
80132;SHT30;69442;51.442;10.564;2023-05-10T06:55:36;14.84;59.90
80132;SHT30;69442;51.442;10.564;2023-05-10T06:58:02;14.84;59.77
80132;SHT30;69442;51.442;10.564;2023-05-10T07:00:27;14.84;59.75
80132;SHT30;69442;51.442;10.564;2023-05-10T07:02:52;14.87;59.90
80132;SHT30;69442;51.442;10.564;2023-05-10T07:05:18;14.90;59.99
80132;SHT30;69442;51.442;10.564;2023-05-10T07:07:43;14.90;60.04
80132;SHT30;69442;51.442;10.564;2023-05-10T07:10:09;14.93;60.10
80132;SHT30;69442;51.442;10.564;2023-05-10T07:12:34;14.94;60.33
80132;SHT30;69442;51.442;10.564;2023-05-10T07:15:00;15.00;60.47
80132;SHT30;69442;51.442;10.564;2023-05-10T07:17:25;15.03;60.33
80132;SHT30;69442;51.442;10.564;2023-05-10T07:19:51;15.04;60.25
80132;SHT30;69442;51.442;10.564;2023-05-10T07:22:16;15.07;60.20
80132;SHT30;69442;51.442;10.564;2023-05-10T07:24:42;15.10;59.99
80132;SHT30;69442;51.442;10.564;2023-05-10T07:27:09;15.11;59.98
80132;SHT30;69442;51.442;10.564;2023-05-10T07:29:35;15.14;59.68
80132;SHT30;69442;51.442;10.564;2023-05-10T07:32:00;15.18;59.20
80132;SHT30;69442;51.442;10.564;2023-05-10T07:34:26;15.20;59.33
80132;SHT30;69442;51.442;10.564;2023-05-10T07:36:52;15.24;59.05
80132;SHT30;69442;51.442;10.564;2023-05-10T07:39:19;15.27;59.13
80132;SHT30;69442;51.442;10.564;2023-05-10T07:41:45;15.29;59.47
80132;SHT30;69442;51.442;10.564;2023-05-10T07:44:11;15.31;59.14
80132;SHT30;69442;51.442;10.564;2023-05-10T07:46:36;15.36;59.47
80132;SHT30;69442;51.442;10.564;2023-05-10T07:49:01;15.35;59.48
80132;SHT30;69442;51.442;10.564;2023-05-10T07:51:27;15.35;59.84
80132;SHT30;69442;51.442;10.564;2023-05-10T07:53:53;15.36;59.81
80132;SHT30;69442;51.442;10.564;2023-05-10T07:56:26;15.39;60.31
80132;SHT30;69442;51.442;10.564;2023-05-10T07:58:55;15.40;60.29
80132;SHT30;69442;51.442;10.564;2023-05-10T08:01:22;15.40;60.39
80132;SHT30;69442;51.442;10.564;2023-05-10T08:03:48;15.42;60.54
80132;SHT30;69442;51.442;10.564;2023-05-10T08:06:17;15.48;60.63
80132;SHT30;69442;51.442;10.564;2023-05-10T08:08:42;15.46;60.68
80132;SHT30;69442;51.442;10.564;2023-05-10T08:11:08;15.48;60.82
80132;SHT30;69442;51.442;10.564;2023-05-10T08:13:42;15.49;60.20
80132;SHT30;69442;51.442;10.564;2023-05-10T08:16:07;15.52;60.45
80132;SHT30;69442;51.442;10.564;2023-05-10T08:18:33;15.55;60.71
80132;SHT30;69442;51.442;10.564;2023-05-10T08:20:58;15.53;61.83
80132;SHT30;69442;51.442;10.564;2023-05-10T08:23:24;15.53;61.59
80132;SHT30;69442;51.442;10.564;2023-05-10T08:25:50;15.55;61.43
80132;SHT30;69442;51.442;10.564;2023-05-10T08:28:17;15.56;62.05
80132;SHT30;69442;51.442;10.564;2023-05-10T08:30:43;15.57;61.82
80132;SHT30;69442;51.442;10.564;2023-05-10T08:33:08;15.57;61.74
80132;SHT30;69442;51.442;10.564;2023-05-10T08:35:34;15.60;61.32
80132;SHT30;69442;51.442;10.564;2023-05-10T08:38:00;15.62;60.52
80132;SHT30;69442;51.442;10.564;2023-05-10T08:40:26;15.65;60.56
80132;SHT30;69442;51.442;10.564;2023-05-10T08:42:57;15.67;60.38
80132;SHT30;69442;51.442;10.564;2023-05-10T08:45:24;15.70;59.95
80132;SHT30;69442;51.442;10.564;2023-05-10T08:47:52;15.74;59.89
80132;SHT30;69442;51.442;10.564;2023-05-10T08:50:20;15.76;59.68
80132;SHT30;69442;51.442;10.564;2023-05-10T08:52:47;15.83;59.58
80132;SHT30;69442;51.442;10.564;2023-05-10T08:55:13;15.89;59.36
80132;SHT30;69442;51.442;10.564;2023-05-10T08:57:39;15.91;59.06
80132;SHT30;69442;51.442;10.564;2023-05-10T09:00:05;15.96;58.89
80132;SHT30;69442;51.442;10.564;2023-05-10T09:02:31;16.00;58.80
80132;SHT30;69442;51.442;10.564;2023-05-10T09:04:56;16.07;58.70
80132;SHT30;69442;51.442;10.564;2023-05-10T09:07:22;16.10;58.65
80132;SHT30;69442;51.442;10.564;2023-05-10T09:09:48;16.12;58.66
80132;SHT30;69442;51.442;10.564;2023-05-10T09:12:14;16.17;58.53
80132;SHT30;69442;51.442;10.564;2023-05-10T09:14:44;16.21;58.94
80132;SHT30;69442;51.442;10.564;2023-05-10T09:17:10;16.24;58.58
80132;SHT30;69442;51.442;10.564;2023-05-10T09:19:36;16.26;58.70
80132;SHT30;69442;51.442;10.564;2023-05-10T09:22:01;16.33;58.61
80132;SHT30;69442;51.442;10.564;2023-05-10T09:24:29;16.38;58.67
80132;SHT30;69442;51.442;10.564;2023-05-10T09:26:56;16.41;58.75
80132;SHT30;69442;51.442;10.564;2023-05-10T09:29:22;16.46;58.69
80132;SHT30;69442;51.442;10.564;2023-05-10T09:31:50;16.49;59.32
80132;SHT30;69442;51.442;10.564;2023-05-10T09:34:18;16.52;59.24
80132;SHT30;69442;51.442;10.564;2023-05-10T09:36:54;16.55;59.61
80132;SHT30;69442;51.442;10.564;2023-05-10T09:39:20;16.63;59.23
80132;SHT30;69442;51.442;10.564;2023-05-10T09:41:46;16.66;59.07
80132;SHT30;69442;51.442;10.564;2023-05-10T09:44:16;16.74;59.00
80132;SHT30;69442;51.442;10.564;2023-05-10T09:46:42;16.80;58.52
80132;SHT30;69442;51.442;10.564;2023-05-10T09:49:08;16.85;58.43
80132;SHT30;69442;51.442;10.564;2023-05-10T09:51:34;16.95;58.31
80132;SHT30;69442;51.442;10.564;2023-05-10T09:54:18;17.00;58.34
80132;SHT30;69442;51.442;10.564;2023-05-10T09:56:44;17.08;57.98
80132;SHT30;69442;51.442;10.564;2023-05-10T09:59:11;17.16;57.99
80132;SHT30;69442;51.442;10.564;2023-05-10T10:01:38;17.25;57.95
80132;SHT30;69442;51.442;10.564;2023-05-10T10:04:05;17.33;57.87
80132;SHT30;69442;51.442;10.564;2023-05-10T10:06:38;17.40;57.90
80132;SHT30;69442;51.442;10.564;2023-05-10T10:09:05;17.52;57.67
80132;SHT30;69442;51.442;10.564;2023-05-10T10:11:31;17.62;57.58
80132;SHT30;69442;51.442;10.564;2023-05-10T10:13:58;17.70;57.53
80132;SHT30;69442;51.442;10.564;2023-05-10T10:16:24;17.78;57.62
80132;SHT30;69442;51.442;10.564;2023-05-10T10:18:49;17.87;57.60
80132;SHT30;69442;51.442;10.564;2023-05-10T10:21:15;17.90;57.68
80132;SHT30;69442;51.442;10.564;2023-05-10T10:23:41;18.00;57.56
80132;SHT30;69442;51.442;10.564;2023-05-10T10:26:07;18.04;57.49
80132;SHT30;69442;51.442;10.564;2023-05-10T10:36:27;18.18;57.19
80132;SHT30;69442;51.442;10.564;2023-05-10T10:39:00;18.21;57.15
80132;SHT30;69442;51.442;10.564;2023-05-10T10:41:40;18.28;57.11
80132;SHT30;69442;51.442;10.564;2023-05-10T10:47:00;18.45;56.67
80132;SHT30;69442;51.442;10.564;2023-05-10T10:49:26;18.55;56.37
80132;SHT30;69442;51.442;10.564;2023-05-10T10:54:40;18.81;55.96
80132;SHT30;69442;51.442;10.564;2023-05-10T10:57:13;18.92;55.90
80132;SHT30;69442;51.442;10.564;2023-05-10T10:59:42;19.02;55.66
80132;SHT30;69442;51.442;10.564;2023-05-10T11:02:09;19.15;55.53
80132;SHT30;69442;51.442;10.564;2023-05-10T11:04:42;19.23;55.47
80132;SHT30;69442;51.442;10.564;2023-05-10T11:07:18;19.33;55.39
80132;SHT30;69442;51.442;10.564;2023-05-10T11:09:46;19.39;55.25
80132;SHT30;69442;51.442;10.564;2023-05-10T11:12:12;19.45;55.22
80132;SHT30;69442;51.442;10.564;2023-05-10T11:14:37;19.50;55.29
80132;SHT30;69442;51.442;10.564;2023-05-10T11:17:22;19.53;55.51
80132;SHT30;69442;51.442;10.564;2023-05-10T11:20:07;19.57;55.43
80132;SHT30;69442;51.442;10.564;2023-05-10T11:22:49;19.59;55.39
80132;SHT30;69442;51.442;10.564;2023-05-10T11:25:16;19.63;55.14
80132;SHT30;69442;51.442;10.564;2023-05-10T11:27:41;19.64;55.16
80132;SHT30;69442;51.442;10.564;2023-05-10T11:30:09;19.69;55.20
80132;SHT30;69442;51.442;10.564;2023-05-10T11:32:38;19.73;55.20
80132;SHT30;69442;51.442;10.564;2023-05-10T11:35:12;19.77;55.27
80132;SHT30;69442;51.442;10.564;2023-05-10T11:37:41;19.81;55.25
80132;SHT30;69442;51.442;10.564;2023-05-10T11:40:09;19.85;55.18
80132;SHT30;69442;51.442;10.564;2023-05-10T11:42:38;19.91;55.17
80132;SHT30;69442;51.442;10.564;2023-05-10T11:45:04;19.98;55.10
80132;SHT30;69442;51.442;10.564;2023-05-10T11:47:29;20.05;55.09
80132;SHT30;69442;51.442;10.564;2023-05-10T11:49:55;20.11;54.96
80132;SHT30;69442;51.442;10.564;2023-05-10T11:52:20;20.15;54.87
80132;SHT30;69442;51.442;10.564;2023-05-10T11:54:52;20.25;54.86
80132;SHT30;69442;51.442;10.564;2023-05-10T11:57:25;20.32;54.67
80132;SHT30;69442;51.442;10.564;2023-05-10T11:59:53;20.42;54.60
80132;SHT30;69442;51.442;10.564;2023-05-10T12:02:20;20.50;54.45
80132;SHT30;69442;51.442;10.564;2023-05-10T12:04:46;20.60;54.41
80132;SHT30;69442;51.442;10.564;2023-05-10T12:07:11;20.66;54.30
80132;SHT30;69442;51.442;10.564;2023-05-10T12:09:37;20.70;54.11
80132;SHT30;69442;51.442;10.564;2023-05-10T12:12:02;20.76;54.14
80132;SHT30;69442;51.442;10.564;2023-05-10T12:14:28;20.83;54.10
80132;SHT30;69442;51.442;10.564;2023-05-10T12:16:58;20.92;54.04
80132;SHT30;69442;51.442;10.564;2023-05-10T12:19:23;21.04;53.89
80132;SHT30;69442;51.442;10.564;2023-05-10T12:21:49;21.15;53.79
80132;SHT30;69442;51.442;10.564;2023-05-10T12:24:14;21.26;53.60
80132;SHT30;69442;51.442;10.564;2023-05-10T12:26:43;21.36;53.46
80132;SHT30;69442;51.442;10.564;2023-05-10T12:29:16;21.47;53.39
80132;SHT30;69442;51.442;10.564;2023-05-10T12:31:53;21.56;53.24
80132;SHT30;69442;51.442;10.564;2023-05-10T12:34:35;21.63;53.23
80132;SHT30;69442;51.442;10.564;2023-05-10T12:37:03;21.68;53.19
80132;SHT30;69442;51.442;10.564;2023-05-10T12:39:43;21.77;53.01
80132;SHT30;69442;51.442;10.564;2023-05-10T12:42:10;21.87;53.00
80132;SHT30;69442;51.442;10.564;2023-05-10T12:44:35;21.95;52.86
80132;SHT30;69442;51.442;10.564;2023-05-10T12:47:01;22.01;52.75
80132;SHT30;69442;51.442;10.564;2023-05-10T12:49:26;22.05;52.69
80132;SHT30;69442;51.442;10.564;2023-05-10T12:51:52;22.12;52.62
80132;SHT30;69442;51.442;10.564;2023-05-10T12:54:17;22.19;52.57
80132;SHT30;69442;51.442;10.564;2023-05-10T12:56:43;22.30;52.50
80132;SHT30;69442;51.442;10.564;2023-05-10T12:59:08;22.40;52.34
80132;SHT30;69442;51.442;10.564;2023-05-10T13:01:33;22.49;52.20
80132;SHT30;69442;51.442;10.564;2023-05-10T13:03:59;22.59;52.18
80132;SHT30;69442;51.442;10.564;2023-05-10T13:06:25;22.65;52.06
80132;SHT30;69442;51.442;10.564;2023-05-10T13:08:50;22.67;52.02
80132;SHT30;69442;51.442;10.564;2023-05-10T13:11:17;22.71;51.97
80132;SHT30;69442;51.442;10.564;2023-05-10T13:13:42;22.75;51.93
80132;SHT30;69442;51.442;10.564;2023-05-10T13:16:08;22.78;51.88
80132;SHT30;69442;51.442;10.564;2023-05-10T13:18:33;22.83;51.91
80132;SHT30;69442;51.442;10.564;2023-05-10T13:20:58;22.83;51.89
80132;SHT30;69442;51.442;10.564;2023-05-10T13:23:24;22.87;51.96
80132;SHT30;69442;51.442;10.564;2023-05-10T13:25:49;22.87;51.98
80132;SHT30;69442;51.442;10.564;2023-05-10T13:28:15;22.91;52.00
80132;SHT30;69442;51.442;10.564;2023-05-10T13:30:40;22.91;51.94
80132;SHT30;69442;51.442;10.564;2023-05-10T13:33:05;22.92;51.87
80132;SHT30;69442;51.442;10.564;2023-05-10T13:35:31;22.94;51.76
80132;SHT30;69442;51.442;10.564;2023-05-10T13:37:56;22.95;51.75
80132;SHT30;69442;51.442;10.564;2023-05-10T13:40:22;22.99;51.77
80132;SHT30;69442;51.442;10.564;2023-05-10T13:42:48;23.01;51.79
80132;SHT30;69442;51.442;10.564;2023-05-10T13:45:13;23.05;51.86
80132;SHT30;69442;51.442;10.564;2023-05-10T13:47:39;23.06;51.74
80132;SHT30;69442;51.442;10.564;2023-05-10T13:50:06;23.14;51.78
80132;SHT30;69442;51.442;10.564;2023-05-10T13:52:31;23.18;51.70
80132;SHT30;69442;51.442;10.564;2023-05-10T13:54:57;23.22;51.22
80132;SHT30;69442;51.442;10.564;2023-05-10T13:57:22;23.27;51.38
80132;SHT30;69442;51.442;10.564;2023-05-10T13:59:49;23.33;51.54
80132;SHT30;69442;51.442;10.564;2023-05-10T14:02:14;23.38;51.47
80132;SHT30;69442;51.442;10.564;2023-05-10T14:04:39;23.46;51.38
80132;SHT30;69442;51.442;10.564;2023-05-10T14:07:05;23.53;51.30
80132;SHT30;69442;51.442;10.564;2023-05-10T14:09:30;23.57;51.27
80132;SHT30;69442;51.442;10.564;2023-05-10T14:11:56;23.64;51.24
80132;SHT30;69442;51.442;10.564;2023-05-10T14:14:22;23.68;51.18
80132;SHT30;69442;51.442;10.564;2023-05-10T14:16:48;23.74;51.12
80132;SHT30;69442;51.442;10.564;2023-05-10T14:19:13;23.75;51.07
80132;SHT30;69442;51.442;10.564;2023-05-10T14:21:39;23.77;51.14
80132;SHT30;69442;51.442;10.564;2023-05-10T14:24:04;23.79;51.22
80132;SHT30;69442;51.442;10.564;2023-05-10T14:26:31;23.82;51.06
80132;SHT30;69442;51.442;10.564;2023-05-10T14:28:57;23.82;50.86
80132;SHT30;69442;51.442;10.564;2023-05-10T14:31:22;23.79;50.92
80132;SHT30;69442;51.442;10.564;2023-05-10T14:33:50;23.81;51.01
80132;SHT30;69442;51.442;10.564;2023-05-10T14:36:15;23.81;50.76
80132;SHT30;69442;51.442;10.564;2023-05-10T14:38:41;23.81;50.80
80132;SHT30;69442;51.442;10.564;2023-05-10T14:41:06;23.84;50.64
80132;SHT30;69442;51.442;10.564;2023-05-10T14:43:32;23.82;50.59
80132;SHT30;69442;51.442;10.564;2023-05-10T14:45:58;23.82;50.64
80132;SHT30;69442;51.442;10.564;2023-05-10T14:48:23;23.82;50.60
80132;SHT30;69442;51.442;10.564;2023-05-10T14:50:49;23.84;50.70
80132;SHT30;69442;51.442;10.564;2023-05-10T14:53:15;23.82;50.61
80132;SHT30;69442;51.442;10.564;2023-05-10T14:55:41;23.82;50.63
80132;SHT30;69442;51.442;10.564;2023-05-10T14:58:06;23.82;50.08
80132;SHT30;69442;51.442;10.564;2023-05-10T15:00:31;23.81;50.29
80132;SHT30;69442;51.442;10.564;2023-05-10T15:02:57;23.82;49.89
80132;SHT30;69442;51.442;10.564;2023-05-10T15:05:22;23.79;50.11
80132;SHT30;69442;51.442;10.564;2023-05-10T15:07:48;23.81;50.40
80132;SHT30;69442;51.442;10.564;2023-05-10T15:10:14;23.78;50.30
80132;SHT30;69442;51.442;10.564;2023-05-10T15:12:40;23.75;50.17
80132;SHT30;69442;51.442;10.564;2023-05-10T15:15:06;23.75;50.22
80132;SHT30;69442;51.442;10.564;2023-05-10T15:17:31;23.73;50.25
80132;SHT30;69442;51.442;10.564;2023-05-10T15:19:57;23.71;50.30
80132;SHT30;69442;51.442;10.564;2023-05-10T15:22:22;23.73;50.23
80132;SHT30;69442;51.442;10.564;2023-05-10T15:24:48;23.68;50.21
80132;SHT30;69442;51.442;10.564;2023-05-10T15:27:13;23.64;49.96
80132;SHT30;69442;51.442;10.564;2023-05-10T15:29:38;23.64;49.95
80132;SHT30;69442;51.442;10.564;2023-05-10T15:32:04;23.63;50.20
80132;SHT30;69442;51.442;10.564;2023-05-10T15:34:29;23.60;50.30
80132;SHT30;69442;51.442;10.564;2023-05-10T15:36:55;23.60;50.30
80132;SHT30;69442;51.442;10.564;2023-05-10T15:39:20;23.54;49.78
80132;SHT30;69442;51.442;10.564;2023-05-10T15:41:46;23.53;49.87